Haifa, Israel
Current Conditions -  °F | °C
As of 2:50 PM on Monday 20 Oct 2014 (Local Time) from LLHA Reporting Station
Scattered Clouds Scattered Clouds  
Wind Chill: 73°   Ceiling: Unl
Heat Index: 73°   Visibility: 6mi
Dew Point: 50°   Wind: 13mph
Humidity: 44%   Direction: 330°NNW
Pressure: 29.88"   Gusts: NA
Location:  32.82°N, 34.99°E
Report Text: LLHA 201250Z 33011KT 9999 SCT040 23/10 Q1012
Loading
Personal Weather Stations






























Interactive Weather Map New forecast layout! Learn more

10-Day Weather Forecast

Advertisements
Track Severe Weather on mobile